Hauptseite
METAR-TAF:

METAR-TAF

Flughäfen :

RAF Shawbury

Shawbury, England

Breite: 52-48N, Länge: 002-40W, Höhe: 76 m

Beobachtung

Neuester Wetterbericht von vor 1 Stunde und 12 Minuten, um 22:50 UTC
Wind 4 kt aus West/Südwest
Temperatur 6°C
Luftfeuchtigkeit 93%
Luftdruck 1005 hPa
Sichtweite: 0100 m
Nebel

METAR: EGOS 232250Z AUTO 24004KT 0100 FG FEW005/// 06/05 Q1005

Zeit: 01:02 (00:02 UTC)

Prognose

Neuester Wetterbericht von vor 10 Stunden und 27 Minuten, um 13:35 UTC
Gültige Prognose vom 23 um 15 UTC bis 23 um 18 UTC
Wind 10 kt aus Süd
Sichtweite 10 km oder mehr
Aufgelockert bewölkt in der Höhe von 1500 ft
Durchbrochene Bewölkung in der Höhe von 2500 ft
Zeitweise
vom 23 um 15 UTC bis 23 um 18 UTC
Leicht bewölkt in der Höhe von 2000 ft
Durchbrochene Bewölkung in der Höhe von 2500 ft

TAF: EGOS 231335Z 2315/2318 18010KT 9999 SCT015 BKN025 TEMPO 2315/2318 FEW020 BKN025

Wetterbeobachtungen und Prognosen von mehr als 4000 Flughäfen (METAR und TAF Bericht).

Die verfügbaren Stationen werden durch gelbe und rote Markierungen auf der Karte dargestellt.

Führen Sie die Maus auf sie, um den Namen der Station zu sehen.

Darauf klicken, um die Beobachtung von Wetterbeobachtungen und Prognosen zu sehen.

Um die Karte zu ändern : klicken Sie auf den grünen Tasten mit einem schwarzen Kreuz Zum Vergrößern, auf den grünen Button mit einem Gedankenstrich zu verkleinern, oder auf die grünen Pfeile für benachbarte Karten.


METAR-TAF: